sensor_id;sensor_type;location;lat;lon;timestamp;P1;durP1;ratioP1;P2;durP2;ratioP2
22334;SDS011;11335;43.848;25.958;2023-04-25T00:01:56;9.45;;;6.38;;
22334;SDS011;11335;43.848;25.958;2023-04-25T00:04:43;7.60;;;6.35;;
22334;SDS011;11335;43.848;25.958;2023-04-25T00:07:28;9.48;;;6.25;;
22334;SDS011;11335;43.848;25.958;2023-04-25T00:10:14;8.18;;;6.63;;
22334;SDS011;11335;43.848;25.958;2023-04-25T00:13:00;9.00;;;6.00;;
22334;SDS011;11335;43.848;25.958;2023-04-25T00:15:48;8.45;;;6.40;;
22334;SDS011;11335;43.848;25.958;2023-04-25T00:18:33;8.38;;;6.15;;
22334;SDS011;11335;43.848;25.958;2023-04-25T00:21:20;6.72;;;6.00;;
22334;SDS011;11335;43.848;25.958;2023-04-25T00:24:06;6.93;;;5.80;;
22334;SDS011;11335;43.848;25.958;2023-04-25T00:26:52;6.97;;;5.45;;
22334;SDS011;11335;43.848;25.958;2023-04-25T00:29:37;10.30;;;5.50;;
22334;SDS011;11335;43.848;25.958;2023-04-25T00:32:23;7.75;;;5.00;;
22334;SDS011;11335;43.848;25.958;2023-04-25T00:35:09;5.40;;;4.68;;
22334;SDS011;11335;43.848;25.958;2023-04-25T00:37:54;6.15;;;4.97;;
22334;SDS011;11335;43.848;25.958;2023-04-25T00:40:40;8.27;;;5.78;;
22334;SDS011;11335;43.848;25.958;2023-04-25T00:43:28;6.90;;;5.28;;
22334;SDS011;11335;43.848;25.958;2023-04-25T00:46:15;6.43;;;5.15;;
22334;SDS011;11335;43.848;25.958;2023-04-25T00:49:01;6.15;;;5.53;;
22334;SDS011;11335;43.848;25.958;2023-04-25T00:51:46;6.68;;;5.45;;
22334;SDS011;11335;43.848;25.958;2023-04-25T00:54:32;6.50;;;5.47;;
22334;SDS011;11335;43.848;25.958;2023-04-25T00:57:17;6.40;;;5.43;;
22334;SDS011;11335;43.848;25.958;2023-04-25T01:00:04;6.45;;;5.50;;
22334;SDS011;11335;43.848;25.958;2023-04-25T01:02:51;7.15;;;5.57;;
22334;SDS011;11335;43.848;25.958;2023-04-25T01:05:37;7.20;;;5.97;;
22334;SDS011;11335;43.848;25.958;2023-04-25T01:08:23;8.07;;;6.05;;
22334;SDS011;11335;43.848;25.958;2023-04-25T01:11:10;7.32;;;6.00;;
22334;SDS011;11335;43.848;25.958;2023-04-25T01:13:55;7.18;;;5.68;;
22334;SDS011;11335;43.848;25.958;2023-04-25T01:16:41;7.88;;;6.38;;
22334;SDS011;11335;43.848;25.958;2023-04-25T01:19:27;9.20;;;6.05;;
22334;SDS011;11335;43.848;25.958;2023-04-25T01:22:14;7.90;;;6.07;;
22334;SDS011;11335;43.848;25.958;2023-04-25T01:25:00;8.57;;;6.20;;
22334;SDS011;11335;43.848;25.958;2023-04-25T01:27:45;6.78;;;5.88;;
22334;SDS011;11335;43.848;25.958;2023-04-25T01:30:31;7.25;;;6.00;;
22334;SDS011;11335;43.848;25.958;2023-04-25T01:33:17;7.50;;;6.07;;
22334;SDS011;11335;43.848;25.958;2023-04-25T01:36:04;7.93;;;6.20;;
22334;SDS011;11335;43.848;25.958;2023-04-25T01:38:50;11.05;;;6.35;;
22334;SDS011;11335;43.848;25.958;2023-04-25T01:41:36;7.57;;;5.80;;
22334;SDS011;11335;43.848;25.958;2023-04-25T01:44:21;7.93;;;6.30;;
22334;SDS011;11335;43.848;25.958;2023-04-25T01:47:07;7.03;;;5.78;;
22334;SDS011;11335;43.848;25.958;2023-04-25T01:49:53;10.23;;;6.72;;
22334;SDS011;11335;43.848;25.958;2023-04-25T01:52:38;7.07;;;6.15;;
22334;SDS011;11335;43.848;25.958;2023-04-25T01:55:24;9.23;;;6.32;;
22334;SDS011;11335;43.848;25.958;2023-04-25T01:58:09;8.70;;;6.28;;
22334;SDS011;11335;43.848;25.958;2023-04-25T02:00:58;9.38;;;6.75;;
22334;SDS011;11335;43.848;25.958;2023-04-25T02:03:43;7.60;;;6.28;;
22334;SDS011;11335;43.848;25.958;2023-04-25T02:06:29;8.77;;;6.40;;
22334;SDS011;11335;43.848;25.958;2023-04-25T02:09:16;7.13;;;6.20;;
22334;SDS011;11335;43.848;25.958;2023-04-25T02:12:01;8.90;;;6.40;;
22334;SDS011;11335;43.848;25.958;2023-04-25T02:14:47;9.80;;;7.30;;
22334;SDS011;11335;43.848;25.958;2023-04-25T02:17:32;8.00;;;6.80;;
22334;SDS011;11335;43.848;25.958;2023-04-25T02:20:20;7.35;;;6.20;;
22334;SDS011;11335;43.848;25.958;2023-04-25T02:23:06;6.95;;;5.90;;
22334;SDS011;11335;43.848;25.958;2023-04-25T02:25:52;9.27;;;7.07;;
22334;SDS011;11335;43.848;25.958;2023-04-25T02:28:38;9.52;;;6.97;;
22334;SDS011;11335;43.848;25.958;2023-04-25T02:31:23;8.45;;;6.10;;
22334;SDS011;11335;43.848;25.958;2023-04-25T02:34:09;8.95;;;6.90;;
22334;SDS011;11335;43.848;25.958;2023-04-25T02:36:54;8.45;;;6.85;;
22334;SDS011;11335;43.848;25.958;2023-04-25T02:39:40;8.40;;;7.18;;
22334;SDS011;11335;43.848;25.958;2023-04-25T02:42:26;7.45;;;6.43;;
22334;SDS011;11335;43.848;25.958;2023-04-25T02:45:12;9.55;;;6.78;;
22334;SDS011;11335;43.848;25.958;2023-04-25T02:47:57;8.73;;;7.28;;
22334;SDS011;11335;43.848;25.958;2023-04-25T02:50:43;11.35;;;7.38;;
22334;SDS011;11335;43.848;25.958;2023-04-25T02:53:28;8.38;;;6.95;;
22334;SDS011;11335;43.848;25.958;2023-04-25T02:56:14;12.60;;;7.97;;
22334;SDS011;11335;43.848;25.958;2023-04-25T02:59:00;9.23;;;7.35;;
22334;SDS011;11335;43.848;25.958;2023-04-25T03:01:45;10.65;;;8.23;;
22334;SDS011;11335;43.848;25.958;2023-04-25T03:04:31;12.85;;;7.78;;
22334;SDS011;11335;43.848;25.958;2023-04-25T03:07:17;9.88;;;7.60;;
22334;SDS011;11335;43.848;25.958;2023-04-25T03:10:02;12.65;;;9.07;;
22334;SDS011;11335;43.848;25.958;2023-04-25T03:12:48;18.25;;;11.32;;
22334;SDS011;11335;43.848;25.958;2023-04-25T03:15:34;14.25;;;9.57;;
22334;SDS011;11335;43.848;25.958;2023-04-25T03:18:20;15.75;;;10.18;;
22334;SDS011;11335;43.848;25.958;2023-04-25T03:21:06;13.07;;;9.20;;
22334;SDS011;11335;43.848;25.958;2023-04-25T03:23:51;14.63;;;8.43;;
22334;SDS011;11335;43.848;25.958;2023-04-25T03:26:37;13.23;;;8.02;;
22334;SDS011;11335;43.848;25.958;2023-04-25T03:29:23;9.45;;;7.60;;
22334;SDS011;11335;43.848;25.958;2023-04-25T03:32:10;9.10;;;6.68;;
22334;SDS011;11335;43.848;25.958;2023-04-25T03:34:56;15.23;;;7.90;;
22334;SDS011;11335;43.848;25.958;2023-04-25T03:37:42;11.60;;;6.90;;
22334;SDS011;11335;43.848;25.958;2023-04-25T03:40:30;11.88;;;7.20;;
22334;SDS011;11335;43.848;25.958;2023-04-25T03:43:16;11.68;;;7.22;;
22334;SDS011;11335;43.848;25.958;2023-04-25T03:46:01;14.93;;;7.07;;
22334;SDS011;11335;43.848;25.958;2023-04-25T03:48:47;12.43;;;7.28;;
22334;SDS011;11335;43.848;25.958;2023-04-25T03:51:33;11.52;;;6.72;;
22334;SDS011;11335;43.848;25.958;2023-04-25T03:54:18;16.50;;;7.70;;
22334;SDS011;11335;43.848;25.958;2023-04-25T03:57:04;12.45;;;7.20;;
22334;SDS011;11335;43.848;25.958;2023-04-25T03:59:50;17.40;;;7.93;;
22334;SDS011;11335;43.848;25.958;2023-04-25T04:02:35;14.10;;;7.30;;
22334;SDS011;11335;43.848;25.958;2023-04-25T04:05:22;15.18;;;7.63;;
22334;SDS011;11335;43.848;25.958;2023-04-25T04:08:08;14.38;;;7.60;;
22334;SDS011;11335;43.848;25.958;2023-04-25T04:10:54;18.55;;;7.78;;
22334;SDS011;11335;43.848;25.958;2023-04-25T04:13:39;13.38;;;7.38;;
22334;SDS011;11335;43.848;25.958;2023-04-25T04:16:25;16.98;;;8.32;;
22334;SDS011;11335;43.848;25.958;2023-04-25T04:19:10;14.15;;;7.57;;
22334;SDS011;11335;43.848;25.958;2023-04-25T04:21:56;10.07;;;7.32;;
22334;SDS011;11335;43.848;25.958;2023-04-25T04:24:42;13.98;;;7.30;;
22334;SDS011;11335;43.848;25.958;2023-04-25T04:27:31;16.50;;;7.57;;
22334;SDS011;11335;43.848;25.958;2023-04-25T04:30:17;21.30;;;8.23;;
22334;SDS011;11335;43.848;25.958;2023-04-25T04:33:02;13.90;;;7.80;;
22334;SDS011;11335;43.848;25.958;2023-04-25T04:35:49;14.15;;;7.20;;
22334;SDS011;11335;43.848;25.958;2023-04-25T04:38:37;15.77;;;7.40;;
22334;SDS011;11335;43.848;25.958;2023-04-25T04:41:23;12.43;;;7.65;;
22334;SDS011;11335;43.848;25.958;2023-04-25T04:44:08;23.50;;;8.15;;
22334;SDS011;11335;43.848;25.958;2023-04-25T04:46:54;23.00;;;8.18;;
22334;SDS011;11335;43.848;25.958;2023-04-25T04:49:39;21.65;;;8.57;;
22334;SDS011;11335;43.848;25.958;2023-04-25T04:52:25;19.88;;;8.45;;
22334;SDS011;11335;43.848;25.958;2023-04-25T04:55:11;30.65;;;9.30;;
22334;SDS011;11335;43.848;25.958;2023-04-25T04:57:56;18.63;;;8.80;;
22334;SDS011;11335;43.848;25.958;2023-04-25T05:00:42;17.50;;;8.98;;
22334;SDS011;11335;43.848;25.958;2023-04-25T05:03:28;19.13;;;9.15;;
22334;SDS011;11335;43.848;25.958;2023-04-25T05:06:14;19.20;;;9.23;;
22334;SDS011;11335;43.848;25.958;2023-04-25T05:08:59;14.50;;;9.02;;
22334;SDS011;11335;43.848;25.958;2023-04-25T05:11:45;12.25;;;8.60;;
22334;SDS011;11335;43.848;25.958;2023-04-25T05:14:31;15.15;;;9.88;;
22334;SDS011;11335;43.848;25.958;2023-04-25T05:17:16;16.23;;;11.02;;
22334;SDS011;11335;43.848;25.958;2023-04-25T05:20:02;14.60;;;8.80;;
22334;SDS011;11335;43.848;25.958;2023-04-25T05:22:48;14.88;;;10.68;;
22334;SDS011;11335;43.848;25.958;2023-04-25T05:25:33;15.35;;;10.20;;
22334;SDS011;11335;43.848;25.958;2023-04-25T05:28:19;13.05;;;9.98;;
22334;SDS011;11335;43.848;25.958;2023-04-25T05:31:06;13.65;;;10.10;;
22334;SDS011;11335;43.848;25.958;2023-04-25T05:33:52;12.93;;;9.93;;
22334;SDS011;11335;43.848;25.958;2023-04-25T05:36:37;19.38;;;11.40;;
22334;SDS011;11335;43.848;25.958;2023-04-25T05:39:23;14.43;;;9.20;;
22334;SDS011;11335;43.848;25.958;2023-04-25T05:42:08;12.85;;;9.13;;
22334;SDS011;11335;43.848;25.958;2023-04-25T05:44:54;14.43;;;9.55;;
22334;SDS011;11335;43.848;25.958;2023-04-25T05:47:40;13.73;;;10.20;;
22334;SDS011;11335;43.848;25.958;2023-04-25T05:50:28;12.98;;;10.02;;
22334;SDS011;11335;43.848;25.958;2023-04-25T05:53:13;16.25;;;11.68;;
22334;SDS011;11335;43.848;25.958;2023-04-25T05:55:59;14.38;;;10.40;;
22334;SDS011;11335;43.848;25.958;2023-04-25T05:58:45;14.55;;;10.10;;
22334;SDS011;11335;43.848;25.958;2023-04-25T06:01:30;15.32;;;10.55;;
22334;SDS011;11335;43.848;25.958;2023-04-25T06:04:16;17.40;;;11.30;;
22334;SDS011;11335;43.848;25.958;2023-04-25T06:07:02;16.05;;;11.93;;
22334;SDS011;11335;43.848;25.958;2023-04-25T06:09:47;16.95;;;11.45;;
22334;SDS011;11335;43.848;25.958;2023-04-25T06:12:33;19.80;;;12.52;;
22334;SDS011;11335;43.848;25.958;2023-04-25T06:15:19;22.58;;;12.98;;
22334;SDS011;11335;43.848;25.958;2023-04-25T06:18:04;18.83;;;13.00;;
22334;SDS011;11335;43.848;25.958;2023-04-25T06:20:50;20.63;;;12.32;;
22334;SDS011;11335;43.848;25.958;2023-04-25T06:23:36;25.33;;;13.77;;
22334;SDS011;11335;43.848;25.958;2023-04-25T06:26:21;20.23;;;13.98;;
22334;SDS011;11335;43.848;25.958;2023-04-25T06:29:07;23.63;;;14.27;;
22334;SDS011;11335;43.848;25.958;2023-04-25T06:31:52;23.10;;;14.25;;
22334;SDS011;11335;43.848;25.958;2023-04-25T06:34:38;19.55;;;13.80;;
22334;SDS011;11335;43.848;25.958;2023-04-25T06:37:23;21.17;;;13.98;;
22334;SDS011;11335;43.848;25.958;2023-04-25T06:40:09;18.73;;;14.30;;
22334;SDS011;11335;43.848;25.958;2023-04-25T06:42:55;25.05;;;16.30;;
22334;SDS011;11335;43.848;25.958;2023-04-25T06:45:41;23.15;;;16.60;;
22334;SDS011;11335;43.848;25.958;2023-04-25T06:48:27;24.98;;;17.48;;
22334;SDS011;11335;43.848;25.958;2023-04-25T06:51:13;26.85;;;17.55;;
22334;SDS011;11335;43.848;25.958;2023-04-25T06:53:58;27.02;;;17.90;;
22334;SDS011;11335;43.848;25.958;2023-04-25T06:56:44;29.48;;;19.50;;
22334;SDS011;11335;43.848;25.958;2023-04-25T06:59:30;27.13;;;18.65;;
22334;SDS011;11335;43.848;25.958;2023-04-25T10:21:48;11.02;;;7.35;;
22334;SDS011;11335;43.848;25.958;2023-04-25T10:24:36;5.03;;;3.97;;
22334;SDS011;11335;43.848;25.958;2023-04-25T10:27:23;3.90;;;3.08;;
22334;SDS011;11335;43.848;25.958;2023-04-25T10:33:17;4.38;;;3.40;;
22334;SDS011;11335;43.848;25.958;2023-04-25T10:36:13;5.72;;;3.78;;
22334;SDS011;11335;43.848;25.958;2023-04-25T10:39:03;9.05;;;3.75;;
22334;SDS011;11335;43.848;25.958;2023-04-25T10:41:53;5.18;;;3.92;;
22334;SDS011;11335;43.848;25.958;2023-04-25T10:44:39;6.72;;;3.80;;
22334;SDS011;11335;43.848;25.958;2023-04-25T10:47:34;4.00;;;3.60;;
22334;SDS011;11335;43.848;25.958;2023-04-25T10:50:19;5.18;;;4.03;;
22334;SDS011;11335;43.848;25.958;2023-04-25T10:53:14;6.53;;;4.25;;
22334;SDS011;11335;43.848;25.958;2023-04-25T10:56:00;5.50;;;4.00;;
22334;SDS011;11335;43.848;25.958;2023-04-25T10:58:51;6.18;;;4.75;;
22334;SDS011;11335;43.848;25.958;2023-04-25T11:01:38;5.22;;;4.47;;
22334;SDS011;11335;43.848;25.958;2023-04-25T11:04:28;6.65;;;4.28;;
22334;SDS011;11335;43.848;25.958;2023-04-25T11:10:15;5.30;;;4.30;;
22334;SDS011;11335;43.848;25.958;2023-04-25T11:13:03;6.40;;;4.65;;
22334;SDS011;11335;43.848;25.958;2023-04-25T11:15:55;7.22;;;4.35;;
22334;SDS011;11335;43.848;25.958;2023-04-25T11:18:43;11.35;;;4.47;;
22334;SDS011;11335;43.848;25.958;2023-04-25T11:21:35;7.32;;;3.95;;
22334;SDS011;11335;43.848;25.958;2023-04-25T11:24:25;5.38;;;3.67;;
22334;SDS011;11335;43.848;25.958;2023-04-25T11:27:10;6.07;;;3.75;;
22334;SDS011;11335;43.848;25.958;2023-04-25T11:29:56;4.15;;;3.05;;
22334;SDS011;11335;43.848;25.958;2023-04-25T11:32:42;6.78;;;3.60;;
22334;SDS011;11335;43.848;25.958;2023-04-25T11:35:28;4.57;;;3.50;;
22334;SDS011;11335;43.848;25.958;2023-04-25T11:38:14;6.05;;;3.67;;
22334;SDS011;11335;43.848;25.958;2023-04-25T11:40:59;5.55;;;3.55;;
22334;SDS011;11335;43.848;25.958;2023-04-25T11:43:45;5.32;;;3.40;;
22334;SDS011;11335;43.848;25.958;2023-04-25T11:46:33;4.68;;;3.90;;
22334;SDS011;11335;43.848;25.958;2023-04-25T11:49:19;5.13;;;4.35;;
22334;SDS011;11335;43.848;25.958;2023-04-25T11:52:06;5.90;;;4.80;;
22334;SDS011;11335;43.848;25.958;2023-04-25T11:54:52;6.80;;;4.10;;
22334;SDS011;11335;43.848;25.958;2023-04-25T11:57:38;5.65;;;4.13;;
22334;SDS011;11335;43.848;25.958;2023-04-25T12:00:25;5.28;;;4.20;;
22334;SDS011;11335;43.848;25.958;2023-04-25T12:03:11;6.50;;;4.95;;
22334;SDS011;11335;43.848;25.958;2023-04-25T12:06:02;5.93;;;4.80;;
22334;SDS011;11335;43.848;25.958;2023-04-25T12:11:46;5.85;;;3.78;;
22334;SDS011;11335;43.848;25.958;2023-04-25T12:14:32;5.68;;;4.10;;
22334;SDS011;11335;43.848;25.958;2023-04-25T12:17:18;6.47;;;4.13;;
22334;SDS011;11335;43.848;25.958;2023-04-25T12:20:08;6.85;;;4.45;;
22334;SDS011;11335;43.848;25.958;2023-04-25T12:22:54;5.18;;;4.00;;
22334;SDS011;11335;43.848;25.958;2023-04-25T12:25:41;5.15;;;3.85;;
22334;SDS011;11335;43.848;25.958;2023-04-25T12:28:27;6.43;;;3.50;;
22334;SDS011;11335;43.848;25.958;2023-04-25T12:31:12;3.80;;;3.40;;
22334;SDS011;11335;43.848;25.958;2023-04-25T12:34:00;4.20;;;3.25;;
22334;SDS011;11335;43.848;25.958;2023-04-25T12:36:46;5.13;;;3.70;;
22334;SDS011;11335;43.848;25.958;2023-04-25T12:39:32;4.57;;;3.10;;
22334;SDS011;11335;43.848;25.958;2023-04-25T12:42:17;3.85;;;3.22;;
22334;SDS011;11335;43.848;25.958;2023-04-25T12:45:03;5.75;;;4.00;;
22334;SDS011;11335;43.848;25.958;2023-04-25T12:47:49;4.90;;;3.60;;
22334;SDS011;11335;43.848;25.958;2023-04-25T12:50:35;3.58;;;2.90;;
22334;SDS011;11335;43.848;25.958;2023-04-25T12:53:21;4.75;;;3.08;;
22334;SDS011;11335;43.848;25.958;2023-04-25T12:56:08;4.38;;;2.83;;
22334;SDS011;11335;43.848;25.958;2023-04-25T12:58:53;3.78;;;3.13;;
22334;SDS011;11335;43.848;25.958;2023-04-25T13:01:39;3.75;;;3.03;;
22334;SDS011;11335;43.848;25.958;2023-04-25T13:04:25;3.10;;;2.80;;
22334;SDS011;11335;43.848;25.958;2023-04-25T13:07:10;4.03;;;2.70;;
22334;SDS011;11335;43.848;25.958;2023-04-25T13:09:56;3.67;;;2.83;;
22334;SDS011;11335;43.848;25.958;2023-04-25T13:12:41;6.25;;;2.95;;
22334;SDS011;11335;43.848;25.958;2023-04-25T13:15:27;4.15;;;2.60;;
22334;SDS011;11335;43.848;25.958;2023-04-25T13:18:13;2.83;;;2.05;;
22334;SDS011;11335;43.848;25.958;2023-04-25T13:20:59;4.53;;;2.50;;
22334;SDS011;11335;43.848;25.958;2023-04-25T13:23:48;2.50;;;2.28;;
22334;SDS011;11335;43.848;25.958;2023-04-25T13:26:34;3.45;;;2.67;;
22334;SDS011;11335;43.848;25.958;2023-04-25T13:29:19;5.35;;;2.40;;
22334;SDS011;11335;43.848;25.958;2023-04-25T13:32:05;4.15;;;2.40;;
22334;SDS011;11335;43.848;25.958;2023-04-25T13:34:51;4.45;;;2.50;;
22334;SDS011;11335;43.848;25.958;2023-04-25T13:37:38;2.88;;;2.30;;
22334;SDS011;11335;43.848;25.958;2023-04-25T13:40:23;3.58;;;2.20;;
22334;SDS011;11335;43.848;25.958;2023-04-25T13:43:09;4.20;;;2.60;;
22334;SDS011;11335;43.848;25.958;2023-04-25T13:45:55;3.80;;;2.97;;
22334;SDS011;11335;43.848;25.958;2023-04-25T13:48:40;3.22;;;2.40;;
22334;SDS011;11335;43.848;25.958;2023-04-25T13:51:31;3.85;;;2.40;;
22334;SDS011;11335;43.848;25.958;2023-04-25T13:54:17;3.63;;;2.70;;
22334;SDS011;11335;43.848;25.958;2023-04-25T13:57:02;4.45;;;3.00;;
22334;SDS011;11335;43.848;25.958;2023-04-25T13:59:48;2.72;;;2.00;;
22334;SDS011;11335;43.848;25.958;2023-04-25T14:02:36;4.53;;;2.33;;
22334;SDS011;11335;43.848;25.958;2023-04-25T14:05:22;2.80;;;2.22;;
22334;SDS011;11335;43.848;25.958;2023-04-25T14:08:08;4.90;;;2.40;;
22334;SDS011;11335;43.848;25.958;2023-04-25T14:10:54;2.33;;;2.00;;
22334;SDS011;11335;43.848;25.958;2023-04-25T14:13:40;2.90;;;2.30;;
22334;SDS011;11335;43.848;25.958;2023-04-25T14:16:26;3.50;;;2.15;;
22334;SDS011;11335;43.848;25.958;2023-04-25T14:19:11;3.10;;;2.40;;
22334;SDS011;11335;43.848;25.958;2023-04-25T14:21:57;5.45;;;4.00;;
22334;SDS011;11335;43.848;25.958;2023-04-25T14:24:42;2.53;;;2.33;;
22334;SDS011;11335;43.848;25.958;2023-04-25T14:27:28;3.55;;;2.33;;
22334;SDS011;11335;43.848;25.958;2023-04-25T14:30:14;9.20;;;2.38;;
22334;SDS011;11335;43.848;25.958;2023-04-25T14:32:59;3.20;;;1.73;;
22334;SDS011;11335;43.848;25.958;2023-04-25T14:35:45;2.75;;;1.80;;
22334;SDS011;11335;43.848;25.958;2023-04-25T14:38:31;3.92;;;1.60;;
22334;SDS011;11335;43.848;25.958;2023-04-25T14:41:16;3.70;;;1.77;;
22334;SDS011;11335;43.848;25.958;2023-04-25T14:44:02;2.35;;;1.75;;
22334;SDS011;11335;43.848;25.958;2023-04-25T14:46:48;2.60;;;1.90;;
22334;SDS011;11335;43.848;25.958;2023-04-25T14:49:34;6.57;;;2.50;;
22334;SDS011;11335;43.848;25.958;2023-04-25T14:52:20;12.18;;;2.58;;
22334;SDS011;11335;43.848;25.958;2023-04-25T14:55:06;7.97;;;2.75;;
22334;SDS011;11335;43.848;25.958;2023-04-25T14:57:53;3.80;;;1.90;;
22334;SDS011;11335;43.848;25.958;2023-04-25T15:00:39;5.63;;;2.55;;
22334;SDS011;11335;43.848;25.958;2023-04-25T15:03:24;16.75;;;4.35;;
22334;SDS011;11335;43.848;25.958;2023-04-25T15:06:10;14.63;;;5.63;;
22334;SDS011;11335;43.848;25.958;2023-04-25T15:08:56;11.52;;;3.63;;
22334;SDS011;11335;43.848;25.958;2023-04-25T15:11:42;10.27;;;3.30;;
22334;SDS011;11335;43.848;25.958;2023-04-25T15:14:27;10.93;;;3.65;;
22334;SDS011;11335;43.848;25.958;2023-04-25T15:17:14;6.75;;;3.42;;
22334;SDS011;11335;43.848;25.958;2023-04-25T15:20:00;7.07;;;3.55;;
22334;SDS011;11335;43.848;25.958;2023-04-25T15:22:45;7.38;;;4.00;;
22334;SDS011;11335;43.848;25.958;2023-04-25T15:25:31;4.90;;;3.25;;
22334;SDS011;11335;43.848;25.958;2023-04-25T15:28:16;7.00;;;2.97;;
22334;SDS011;11335;43.848;25.958;2023-04-25T15:31:02;4.20;;;3.50;;
22334;SDS011;11335;43.848;25.958;2023-04-25T15:33:48;6.47;;;3.35;;
22334;SDS011;11335;43.848;25.958;2023-04-25T15:36:33;7.15;;;3.70;;
22334;SDS011;11335;43.848;25.958;2023-04-25T15:39:19;5.10;;;3.70;;
22334;SDS011;11335;43.848;25.958;2023-04-25T15:42:04;6.60;;;4.05;;
22334;SDS011;11335;43.848;25.958;2023-04-25T15:44:50;4.72;;;4.03;;
22334;SDS011;11335;43.848;25.958;2023-04-25T15:47:36;7.13;;;4.20;;
22334;SDS011;11335;43.848;25.958;2023-04-25T15:50:22;5.53;;;3.72;;
22334;SDS011;11335;43.848;25.958;2023-04-25T15:53:08;4.82;;;3.22;;
22334;SDS011;11335;43.848;25.958;2023-04-25T15:55:54;3.65;;;3.00;;
22334;SDS011;11335;43.848;25.958;2023-04-25T15:58:40;5.38;;;3.20;;
22334;SDS011;11335;43.848;25.958;2023-04-25T16:01:25;3.47;;;3.03;;
22334;SDS011;11335;43.848;25.958;2023-04-25T16:04:14;5.20;;;3.08;;
22334;SDS011;11335;43.848;25.958;2023-04-25T16:07:01;5.22;;;3.58;;
22334;SDS011;11335;43.848;25.958;2023-04-25T16:09:47;7.68;;;4.22;;
22334;SDS011;11335;43.848;25.958;2023-04-25T16:12:33;10.52;;;4.65;;
22334;SDS011;11335;43.848;25.958;2023-04-25T16:15:19;6.05;;;4.32;;
22334;SDS011;11335;43.848;25.958;2023-04-25T16:18:05;5.57;;;4.10;;
22334;SDS011;11335;43.848;25.958;2023-04-25T16:20:52;7.88;;;4.18;;
22334;SDS011;11335;43.848;25.958;2023-04-25T16:23:37;7.18;;;4.70;;
22334;SDS011;11335;43.848;25.958;2023-04-25T16:26:23;7.93;;;4.90;;
22334;SDS011;11335;43.848;25.958;2023-04-25T16:29:09;8.10;;;4.50;;
22334;SDS011;11335;43.848;25.958;2023-04-25T16:31:55;5.22;;;4.07;;
22334;SDS011;11335;43.848;25.958;2023-04-25T16:34:40;5.78;;;3.80;;
22334;SDS011;11335;43.848;25.958;2023-04-25T16:37:26;6.10;;;4.10;;
22334;SDS011;11335;43.848;25.958;2023-04-25T16:40:12;5.63;;;3.47;;
22334;SDS011;11335;43.848;25.958;2023-04-25T16:42:57;6.65;;;3.55;;
22334;SDS011;11335;43.848;25.958;2023-04-25T16:45:43;4.68;;;3.20;;
22334;SDS011;11335;43.848;25.958;2023-04-25T16:48:28;8.60;;;3.50;;
22334;SDS011;11335;43.848;25.958;2023-04-25T16:51:14;6.57;;;3.40;;
22334;SDS011;11335;43.848;25.958;2023-04-25T16:54:00;5.25;;;3.33;;
22334;SDS011;11335;43.848;25.958;2023-04-25T16:56:46;5.85;;;3.40;;
22334;SDS011;11335;43.848;25.958;2023-04-25T16:59:31;4.07;;;3.20;;
22334;SDS011;11335;43.848;25.958;2023-04-25T17:02:17;4.05;;;2.83;;
22334;SDS011;11335;43.848;25.958;2023-04-25T17:05:03;4.85;;;2.83;;
22334;SDS011;11335;43.848;25.958;2023-04-25T17:07:49;4.13;;;2.80;;
22334;SDS011;11335;43.848;25.958;2023-04-25T17:10:37;4.40;;;2.53;;
22334;SDS011;11335;43.848;25.958;2023-04-25T17:13:23;4.53;;;2.92;;
22334;SDS011;11335;43.848;25.958;2023-04-25T17:16:08;3.65;;;2.50;;
22334;SDS011;11335;43.848;25.958;2023-04-25T17:18:56;5.13;;;3.70;;
22334;SDS011;11335;43.848;25.958;2023-04-25T17:21:42;6.95;;;2.95;;
22334;SDS011;11335;43.848;25.958;2023-04-25T17:24:28;4.30;;;2.47;;
22334;SDS011;11335;43.848;25.958;2023-04-25T17:27:13;4.93;;;2.78;;
22334;SDS011;11335;43.848;25.958;2023-04-25T17:29:59;7.35;;;3.10;;
22334;SDS011;11335;43.848;25.958;2023-04-25T17:32:45;5.10;;;2.90;;
22334;SDS011;11335;43.848;25.958;2023-04-25T17:35:31;5.30;;;2.50;;
22334;SDS011;11335;43.848;25.958;2023-04-25T17:38:18;6.30;;;2.90;;
22334;SDS011;11335;43.848;25.958;2023-04-25T17:41:04;7.82;;;3.05;;
22334;SDS011;11335;43.848;25.958;2023-04-25T17:43:49;3.80;;;2.75;;
22334;SDS011;11335;43.848;25.958;2023-04-25T17:46:35;3.90;;;2.78;;
22334;SDS011;11335;43.848;25.958;2023-04-25T17:49:21;7.15;;;3.97;;
22334;SDS011;11335;43.848;25.958;2023-04-25T17:52:07;7.32;;;4.78;;
22334;SDS011;11335;43.848;25.958;2023-04-25T17:54:53;7.97;;;4.75;;
22334;SDS011;11335;43.848;25.958;2023-04-25T17:57:38;6.03;;;4.10;;
22334;SDS011;11335;43.848;25.958;2023-04-25T18:00:24;6.68;;;3.83;;
22334;SDS011;11335;43.848;25.958;2023-04-25T18:03:10;6.65;;;4.00;;
22334;SDS011;11335;43.848;25.958;2023-04-25T18:05:56;7.93;;;4.30;;
22334;SDS011;11335;43.848;25.958;2023-04-25T18:08:41;4.95;;;3.63;;
22334;SDS011;11335;43.848;25.958;2023-04-25T18:11:28;6.50;;;4.47;;
22334;SDS011;11335;43.848;25.958;2023-04-25T18:14:15;8.65;;;4.65;;
22334;SDS011;11335;43.848;25.958;2023-04-25T18:17:01;8.15;;;4.63;;
22334;SDS011;11335;43.848;25.958;2023-04-25T18:19:48;7.82;;;5.05;;
22334;SDS011;11335;43.848;25.958;2023-04-25T18:22:35;7.55;;;5.18;;
22334;SDS011;11335;43.848;25.958;2023-04-25T18:25:21;7.18;;;4.90;;
22334;SDS011;11335;43.848;25.958;2023-04-25T18:28:07;7.00;;;5.13;;
22334;SDS011;11335;43.848;25.958;2023-04-25T18:30:53;7.50;;;4.95;;
22334;SDS011;11335;43.848;25.958;2023-04-25T18:33:38;8.38;;;5.38;;
22334;SDS011;11335;43.848;25.958;2023-04-25T18:36:24;9.40;;;5.55;;
22334;SDS011;11335;43.848;25.958;2023-04-25T18:39:11;8.98;;;6.07;;
22334;SDS011;11335;43.848;25.958;2023-04-25T18:41:57;9.70;;;6.35;;
22334;SDS011;11335;43.848;25.958;2023-04-25T18:44:42;13.55;;;6.80;;
22334;SDS011;11335;43.848;25.958;2023-04-25T18:47:29;9.70;;;6.82;;
22334;SDS011;11335;43.848;25.958;2023-04-25T18:50:15;9.60;;;7.25;;
22334;SDS011;11335;43.848;25.958;2023-04-25T18:53:04;10.05;;;7.00;;
22334;SDS011;11335;43.848;25.958;2023-04-25T18:55:50;10.35;;;7.07;;
22334;SDS011;11335;43.848;25.958;2023-04-25T18:58:35;9.73;;;7.75;;
22334;SDS011;11335;43.848;25.958;2023-04-25T19:01:23;10.32;;;8.00;;
22334;SDS011;11335;43.848;25.958;2023-04-25T19:04:08;9.70;;;7.80;;
22334;SDS011;11335;43.848;25.958;2023-04-25T19:06:54;8.60;;;7.40;;
22334;SDS011;11335;43.848;25.958;2023-04-25T19:09:40;10.45;;;8.48;;
22334;SDS011;11335;43.848;25.958;2023-04-25T19:12:26;10.43;;;8.18;;
22334;SDS011;11335;43.848;25.958;2023-04-25T19:15:11;19.75;;;13.23;;
22334;SDS011;11335;43.848;25.958;2023-04-25T19:17:57;26.05;;;19.23;;
22334;SDS011;11335;43.848;25.958;2023-04-25T19:20:42;24.75;;;16.75;;
22334;SDS011;11335;43.848;25.958;2023-04-25T19:23:28;21.45;;;13.88;;
22334;SDS011;11335;43.848;25.958;2023-04-25T19:26:15;16.55;;;11.45;;
22334;SDS011;11335;43.848;25.958;2023-04-25T19:29:02;14.13;;;9.30;;
22334;SDS011;11335;43.848;25.958;2023-04-25T19:31:49;12.98;;;8.95;;
22334;SDS011;11335;43.848;25.958;2023-04-25T19:34:34;12.93;;;9.05;;
22334;SDS011;11335;43.848;25.958;2023-04-25T19:37:20;11.23;;;8.55;;
22334;SDS011;11335;43.848;25.958;2023-04-25T19:40:06;11.50;;;8.70;;
22334;SDS011;11335;43.848;25.958;2023-04-25T19:42:52;12.27;;;7.70;;
22334;SDS011;11335;43.848;25.958;2023-04-25T19:45:38;9.77;;;6.95;;
22334;SDS011;11335;43.848;25.958;2023-04-25T19:48:23;11.52;;;7.15;;